CPX991 Details

Departure: Roswell International Air Center Airport (KROW)
Arrival: Miami International Airport (KMIA)
Route: INK J15 JCT J86 LEV Q102 BAGGS SSCOT5
Notes: EMPTY | NON-REVENUE REPOSITIONING LEG


Current Weather Information
KROW 260951Z AUTO 17004KT 10SM CLR 07/00 A3022 RMK AO2 SLP193 T00720000
KMIA 260953Z 29003KT 10SM FEW020 21/17 A3000 RMK AO2 SLP160 T02060172